sensor_id;sensor_type;location;lat;lon;timestamp;temperature;humidity
65231;DHT22;51813;40.666;16.602;2023-02-19T00:01:16;13.60;59.30
65231;DHT22;51813;40.666;16.602;2023-02-19T00:03:42;13.60;59.50
65231;DHT22;51813;40.666;16.602;2023-02-19T00:06:09;13.50;59.30
65231;DHT22;51813;40.666;16.602;2023-02-19T00:08:36;13.60;59.40
65231;DHT22;51813;40.666;16.602;2023-02-19T00:11:16;13.50;59.30
65231;DHT22;51813;40.666;16.602;2023-02-19T00:13:44;13.50;59.30
65231;DHT22;51813;40.666;16.602;2023-02-19T00:16:16;13.60;59.40
65231;DHT22;51813;40.666;16.602;2023-02-19T00:18:41;13.60;59.30
65231;DHT22;51813;40.666;16.602;2023-02-19T00:21:08;13.60;59.20
65231;DHT22;51813;40.666;16.602;2023-02-19T00:23:34;13.60;59.30
65231;DHT22;51813;40.666;16.602;2023-02-19T00:26:11;13.60;59.30
65231;DHT22;51813;40.666;16.602;2023-02-19T00:28:37;13.60;59.20
65231;DHT22;51813;40.666;16.602;2023-02-19T00:31:09;13.50;59.30
65231;DHT22;51813;40.666;16.602;2023-02-19T00:33:37;13.50;59.30
65231;DHT22;51813;40.666;16.602;2023-02-19T00:36:04;13.50;59.30
65231;DHT22;51813;40.666;16.602;2023-02-19T00:38:31;13.50;59.20
65231;DHT22;51813;40.666;16.602;2023-02-19T00:41:00;13.50;59.10
65231;DHT22;51813;40.666;16.602;2023-02-19T00:43:26;13.50;59.20
65231;DHT22;51813;40.666;16.602;2023-02-19T00:45:52;13.50;59.10
65231;DHT22;51813;40.666;16.602;2023-02-19T00:48:17;13.50;59.20
65231;DHT22;51813;40.666;16.602;2023-02-19T00:50:43;13.50;59.20
65231;DHT22;51813;40.666;16.602;2023-02-19T00:53:09;13.50;59.20
65231;DHT22;51813;40.666;16.602;2023-02-19T00:55:34;13.50;59.20
65231;DHT22;51813;40.666;16.602;2023-02-19T00:58:00;13.60;59.20
65231;DHT22;51813;40.666;16.602;2023-02-19T01:00:26;13.50;59.00
65231;DHT22;51813;40.666;16.602;2023-02-19T01:02:52;13.50;59.10
65231;DHT22;51813;40.666;16.602;2023-02-19T01:05:17;13.50;59.00
65231;DHT22;51813;40.666;16.602;2023-02-19T01:07:43;13.50;59.10
65231;DHT22;51813;40.666;16.602;2023-02-19T01:10:09;13.50;59.00
65231;DHT22;51813;40.666;16.602;2023-02-19T01:12:34;13.50;59.00
65231;DHT22;51813;40.666;16.602;2023-02-19T01:15:00;13.50;59.00
65231;DHT22;51813;40.666;16.602;2023-02-19T01:17:26;13.50;58.90
65231;DHT22;51813;40.666;16.602;2023-02-19T01:19:51;13.50;59.00
65231;DHT22;51813;40.666;16.602;2023-02-19T01:22:17;13.50;58.90
65231;DHT22;51813;40.666;16.602;2023-02-19T01:24:43;13.50;58.90
65231;DHT22;51813;40.666;16.602;2023-02-19T01:27:08;13.50;59.00
65231;DHT22;51813;40.666;16.602;2023-02-19T01:29:34;13.50;59.00
65231;DHT22;51813;40.666;16.602;2023-02-19T01:32:00;13.50;58.90
65231;DHT22;51813;40.666;16.602;2023-02-19T01:34:25;13.50;58.90
65231;DHT22;51813;40.666;16.602;2023-02-19T01:36:54;13.50;58.90
65231;DHT22;51813;40.666;16.602;2023-02-19T01:39:20;13.50;58.90
65231;DHT22;51813;40.666;16.602;2023-02-19T01:41:45;13.50;58.90
65231;DHT22;51813;40.666;16.602;2023-02-19T01:46:39;13.60;58.90
65231;DHT22;51813;40.666;16.602;2023-02-19T01:49:19;13.50;58.80
65231;DHT22;51813;40.666;16.602;2023-02-19T01:51:48;13.60;58.90
65231;DHT22;51813;40.666;16.602;2023-02-19T01:54:18;13.50;58.80
65231;DHT22;51813;40.666;16.602;2023-02-19T01:56:47;13.50;58.80
65231;DHT22;51813;40.666;16.602;2023-02-19T01:59:13;13.50;58.90
65231;DHT22;51813;40.666;16.602;2023-02-19T02:01:40;13.50;59.00
65231;DHT22;51813;40.666;16.602;2023-02-19T02:04:07;13.50;58.90
65231;DHT22;51813;40.666;16.602;2023-02-19T02:06:50;13.50;58.80
65231;DHT22;51813;40.666;16.602;2023-02-19T02:09:24;13.50;59.00
65231;DHT22;51813;40.666;16.602;2023-02-19T02:12:09;13.50;58.90
65231;DHT22;51813;40.666;16.602;2023-02-19T02:14:37;13.50;58.90
65231;DHT22;51813;40.666;16.602;2023-02-19T02:17:10;13.50;58.80
65231;DHT22;51813;40.666;16.602;2023-02-19T02:20:20;13.50;58.80
65231;DHT22;51813;40.666;16.602;2023-02-19T02:25:39;13.50;58.80
65231;DHT22;51813;40.666;16.602;2023-02-19T02:31:03;13.50;58.80
65231;DHT22;51813;40.666;16.602;2023-02-19T02:36:22;13.50;58.80
65231;DHT22;51813;40.666;16.602;2023-02-19T02:38:50;13.50;58.70
65231;DHT22;51813;40.666;16.602;2023-02-19T02:41:19;13.50;58.70
65231;DHT22;51813;40.666;16.602;2023-02-19T02:43:45;13.40;58.70
65231;DHT22;51813;40.666;16.602;2023-02-19T02:46:13;13.50;58.80
65231;DHT22;51813;40.666;16.602;2023-02-19T02:48:57;13.50;58.80
65231;DHT22;51813;40.666;16.602;2023-02-19T02:51:37;13.50;58.70
65231;DHT22;51813;40.666;16.602;2023-02-19T02:54:09;13.50;58.70
65231;DHT22;51813;40.666;16.602;2023-02-19T02:56:55;13.40;58.70
65231;DHT22;51813;40.666;16.602;2023-02-19T02:59:24;13.40;58.70
65231;DHT22;51813;40.666;16.602;2023-02-19T03:02:03;13.40;58.70
65231;DHT22;51813;40.666;16.602;2023-02-19T03:04:49;13.50;58.60
65231;DHT22;51813;40.666;16.602;2023-02-19T03:07:51;13.40;58.60
65231;DHT22;51813;40.666;16.602;2023-02-19T03:10:26;13.40;58.60
65231;DHT22;51813;40.666;16.602;2023-02-19T03:12:54;13.40;58.50
65231;DHT22;51813;40.666;16.602;2023-02-19T03:15:47;13.50;58.70
65231;DHT22;51813;40.666;16.602;2023-02-19T03:18:34;13.40;58.40
65231;DHT22;51813;40.666;16.602;2023-02-19T03:21:21;13.40;58.50
65231;DHT22;51813;40.666;16.602;2023-02-19T03:23:49;13.40;58.60
65231;DHT22;51813;40.666;16.602;2023-02-19T03:26:34;13.40;58.60
65231;DHT22;51813;40.666;16.602;2023-02-19T03:29:02;13.40;58.40
65231;DHT22;51813;40.666;16.602;2023-02-19T03:31:49;13.50;58.50
65231;DHT22;51813;40.666;16.602;2023-02-19T03:34:21;13.40;58.50
65231;DHT22;51813;40.666;16.602;2023-02-19T03:37:08;13.40;58.50
65231;DHT22;51813;40.666;16.602;2023-02-19T03:39:35;13.50;58.40
65231;DHT22;51813;40.666;16.602;2023-02-19T03:50:42;13.40;58.50
65231;DHT22;51813;40.666;16.602;2023-02-19T03:56:06;13.40;58.50
65231;DHT22;51813;40.666;16.602;2023-02-19T04:01:16;13.40;58.50
65231;DHT22;51813;40.666;16.602;2023-02-19T04:03:51;13.40;58.50
65231;DHT22;51813;40.666;16.602;2023-02-19T04:06:24;13.40;58.40
65231;DHT22;51813;40.666;16.602;2023-02-19T04:08:53;13.40;58.30
65231;DHT22;51813;40.666;16.602;2023-02-19T04:11:21;13.40;58.50
65231;DHT22;51813;40.666;16.602;2023-02-19T04:13:57;13.40;58.40
65231;DHT22;51813;40.666;16.602;2023-02-19T04:16:28;13.40;58.30
65231;DHT22;51813;40.666;16.602;2023-02-19T04:18:58;13.50;58.50
65231;DHT22;51813;40.666;16.602;2023-02-19T04:21:25;13.40;58.30
65231;DHT22;51813;40.666;16.602;2023-02-19T04:23:53;13.40;58.30
65231;DHT22;51813;40.666;16.602;2023-02-19T04:26:21;13.40;58.30
65231;DHT22;51813;40.666;16.602;2023-02-19T04:28:47;13.40;58.40
65231;DHT22;51813;40.666;16.602;2023-02-19T04:31:12;13.40;58.30
65231;DHT22;51813;40.666;16.602;2023-02-19T04:33:38;13.40;58.40
65231;DHT22;51813;40.666;16.602;2023-02-19T04:36:04;13.40;58.40
65231;DHT22;51813;40.666;16.602;2023-02-19T04:38:31;13.40;58.30
65231;DHT22;51813;40.666;16.602;2023-02-19T04:40:57;13.40;58.30
65231;DHT22;51813;40.666;16.602;2023-02-19T04:43:22;13.40;58.40
65231;DHT22;51813;40.666;16.602;2023-02-19T04:45:48;13.40;58.30
65231;DHT22;51813;40.666;16.602;2023-02-19T04:48:13;13.40;58.30
65231;DHT22;51813;40.666;16.602;2023-02-19T04:50:40;13.40;58.30
65231;DHT22;51813;40.666;16.602;2023-02-19T04:53:06;13.50;58.40
65231;DHT22;51813;40.666;16.602;2023-02-19T04:55:37;13.40;58.40
65231;DHT22;51813;40.666;16.602;2023-02-19T04:58:03;13.40;58.30
65231;DHT22;51813;40.666;16.602;2023-02-19T05:00:29;13.40;58.40
65231;DHT22;51813;40.666;16.602;2023-02-19T05:02:54;13.40;58.30
65231;DHT22;51813;40.666;16.602;2023-02-19T05:05:20;13.40;58.30
65231;DHT22;51813;40.666;16.602;2023-02-19T05:07:46;13.40;58.30
65231;DHT22;51813;40.666;16.602;2023-02-19T05:10:11;13.40;58.00
65231;DHT22;51813;40.666;16.602;2023-02-19T05:12:37;13.40;58.30
65231;DHT22;51813;40.666;16.602;2023-02-19T05:15:03;13.40;58.40
65231;DHT22;51813;40.666;16.602;2023-02-19T05:17:31;13.40;58.50
65231;DHT22;51813;40.666;16.602;2023-02-19T05:19:56;13.40;58.40
65231;DHT22;51813;40.666;16.602;2023-02-19T05:22:22;13.40;58.30
65231;DHT22;51813;40.666;16.602;2023-02-19T05:24:48;13.40;58.30
65231;DHT22;51813;40.666;16.602;2023-02-19T05:27:13;13.40;58.40
65231;DHT22;51813;40.666;16.602;2023-02-19T05:29:39;13.40;58.40
65231;DHT22;51813;40.666;16.602;2023-02-19T05:32:04;13.40;58.50
65231;DHT22;51813;40.666;16.602;2023-02-19T05:34:30;13.40;58.50
65231;DHT22;51813;40.666;16.602;2023-02-19T05:36:56;13.40;58.50
65231;DHT22;51813;40.666;16.602;2023-02-19T05:39:21;13.40;58.50
65231;DHT22;51813;40.666;16.602;2023-02-19T05:41:47;13.50;58.60
65231;DHT22;51813;40.666;16.602;2023-02-19T05:44:13;13.40;58.50
65231;DHT22;51813;40.666;16.602;2023-02-19T05:46:38;13.40;58.40
65231;DHT22;51813;40.666;16.602;2023-02-19T05:49:04;13.40;58.50
65231;DHT22;51813;40.666;16.602;2023-02-19T05:51:30;13.40;58.40
65231;DHT22;51813;40.666;16.602;2023-02-19T05:53:56;13.40;58.40
65231;DHT22;51813;40.666;16.602;2023-02-19T05:56:37;13.40;58.50
65231;DHT22;51813;40.666;16.602;2023-02-19T05:59:19;13.40;58.50
65231;DHT22;51813;40.666;16.602;2023-02-19T06:01:45;13.40;58.50
65231;DHT22;51813;40.666;16.602;2023-02-19T06:04:11;13.40;58.50
65231;DHT22;51813;40.666;16.602;2023-02-19T06:06:38;13.40;58.50
65231;DHT22;51813;40.666;16.602;2023-02-19T06:09:05;13.40;58.50
65231;DHT22;51813;40.666;16.602;2023-02-19T06:11:31;13.40;58.50
65231;DHT22;51813;40.666;16.602;2023-02-19T06:13:57;13.40;58.60
65231;DHT22;51813;40.666;16.602;2023-02-19T06:16:23;13.40;58.50
65231;DHT22;51813;40.666;16.602;2023-02-19T06:18:49;13.40;58.50
65231;DHT22;51813;40.666;16.602;2023-02-19T06:21:15;13.40;58.50
65231;DHT22;51813;40.666;16.602;2023-02-19T06:23:42;13.40;58.50
65231;DHT22;51813;40.666;16.602;2023-02-19T06:26:10;13.40;58.50
65231;DHT22;51813;40.666;16.602;2023-02-19T06:28:37;13.40;58.50
65231;DHT22;51813;40.666;16.602;2023-02-19T06:31:03;13.40;58.60
65231;DHT22;51813;40.666;16.602;2023-02-19T06:33:29;13.40;58.70
65231;DHT22;51813;40.666;16.602;2023-02-19T06:36:00;13.40;58.60
65231;DHT22;51813;40.666;16.602;2023-02-19T06:38:27;13.40;58.60
65231;DHT22;51813;40.666;16.602;2023-02-19T06:40:53;13.50;58.70
65231;DHT22;51813;40.666;16.602;2023-02-19T06:43:19;13.40;58.60
65231;DHT22;51813;40.666;16.602;2023-02-19T06:45:45;13.40;58.60
65231;DHT22;51813;40.666;16.602;2023-02-19T06:48:11;13.40;58.50
65231;DHT22;51813;40.666;16.602;2023-02-19T06:50:37;13.50;58.70
65231;DHT22;51813;40.666;16.602;2023-02-19T06:53:02;13.40;58.80
65231;DHT22;51813;40.666;16.602;2023-02-19T06:55:28;13.40;58.70
65231;DHT22;51813;40.666;16.602;2023-02-19T06:57:54;13.40;58.80
65231;DHT22;51813;40.666;16.602;2023-02-19T07:00:19;13.40;58.70
65231;DHT22;51813;40.666;16.602;2023-02-19T07:02:45;13.40;59.30
65231;DHT22;51813;40.666;16.602;2023-02-19T07:05:11;13.40;58.70
65231;DHT22;51813;40.666;16.602;2023-02-19T07:07:36;13.40;58.70
65231;DHT22;51813;40.666;16.602;2023-02-19T07:10:02;13.40;58.70
65231;DHT22;51813;40.666;16.602;2023-02-19T07:12:28;13.50;58.70
65231;DHT22;51813;40.666;16.602;2023-02-19T07:14:53;13.50;58.70
65231;DHT22;51813;40.666;16.602;2023-02-19T07:17:19;13.50;58.80
65231;DHT22;51813;40.666;16.602;2023-02-19T07:19:45;13.50;58.80
65231;DHT22;51813;40.666;16.602;2023-02-19T07:22:10;13.40;58.80
65231;DHT22;51813;40.666;16.602;2023-02-19T07:24:36;13.50;58.70
65231;DHT22;51813;40.666;16.602;2023-02-19T07:27:02;13.50;58.80
65231;DHT22;51813;40.666;16.602;2023-02-19T07:29:27;13.40;58.90
65231;DHT22;51813;40.666;16.602;2023-02-19T07:31:53;13.40;58.90
65231;DHT22;51813;40.666;16.602;2023-02-19T07:34:19;13.40;58.90
65231;DHT22;51813;40.666;16.602;2023-02-19T07:36:45;13.40;58.90
65231;DHT22;51813;40.666;16.602;2023-02-19T07:39:12;13.40;58.80
65231;DHT22;51813;40.666;16.602;2023-02-19T07:41:40;13.40;59.70
65231;DHT22;51813;40.666;16.602;2023-02-19T07:44:05;13.40;58.80
65231;DHT22;51813;40.666;16.602;2023-02-19T07:46:31;13.40;58.80
65231;DHT22;51813;40.666;16.602;2023-02-19T07:48:58;13.50;58.90
65231;DHT22;51813;40.666;16.602;2023-02-19T07:51:24;13.50;58.90
65231;DHT22;51813;40.666;16.602;2023-02-19T07:53:50;13.50;58.90
65231;DHT22;51813;40.666;16.602;2023-02-19T07:56:16;13.50;59.00
65231;DHT22;51813;40.666;16.602;2023-02-19T07:58:43;13.50;59.00
65231;DHT22;51813;40.666;16.602;2023-02-19T08:01:16;13.40;59.00
65231;DHT22;51813;40.666;16.602;2023-02-19T08:03:43;13.40;58.90
65231;DHT22;51813;40.666;16.602;2023-02-19T08:06:09;13.40;59.00
65231;DHT22;51813;40.666;16.602;2023-02-19T08:08:38;13.40;58.90
65231;DHT22;51813;40.666;16.602;2023-02-19T08:11:05;13.50;59.70
65231;DHT22;51813;40.666;16.602;2023-02-19T08:13:50;13.40;58.80
65231;DHT22;51813;40.666;16.602;2023-02-19T08:16:17;13.50;58.90
65231;DHT22;51813;40.666;16.602;2023-02-19T08:18:47;13.50;58.90
65231;DHT22;51813;40.666;16.602;2023-02-19T08:21:14;13.50;58.90
65231;DHT22;51813;40.666;16.602;2023-02-19T08:23:42;13.50;58.80
65231;DHT22;51813;40.666;16.602;2023-02-19T08:26:08;13.50;58.90
65231;DHT22;51813;40.666;16.602;2023-02-19T08:28:34;13.50;58.90
65231;DHT22;51813;40.666;16.602;2023-02-19T08:31:02;13.50;58.80
65231;DHT22;51813;40.666;16.602;2023-02-19T08:33:28;13.50;58.80
65231;DHT22;51813;40.666;16.602;2023-02-19T08:35:54;13.50;58.90
65231;DHT22;51813;40.666;16.602;2023-02-19T08:38:20;13.50;58.90
65231;DHT22;51813;40.666;16.602;2023-02-19T08:40:46;13.50;58.90
65231;DHT22;51813;40.666;16.602;2023-02-19T08:43:14;13.50;58.80
65231;DHT22;51813;40.666;16.602;2023-02-19T08:45:41;13.50;58.80
65231;DHT22;51813;40.666;16.602;2023-02-19T08:48:08;13.50;58.80
65231;DHT22;51813;40.666;16.602;2023-02-19T08:50:34;13.50;58.90
65231;DHT22;51813;40.666;16.602;2023-02-19T08:53:01;13.50;58.90
65231;DHT22;51813;40.666;16.602;2023-02-19T08:55:27;13.50;58.80
65231;DHT22;51813;40.666;16.602;2023-02-19T08:57:52;13.50;58.70
65231;DHT22;51813;40.666;16.602;2023-02-19T09:00:18;13.50;58.70
65231;DHT22;51813;40.666;16.602;2023-02-19T09:02:45;13.50;58.80
65231;DHT22;51813;40.666;16.602;2023-02-19T09:05:12;13.50;58.70
65231;DHT22;51813;40.666;16.602;2023-02-19T09:07:38;13.50;58.80
65231;DHT22;51813;40.666;16.602;2023-02-19T09:10:04;13.60;58.90
65231;DHT22;51813;40.666;16.602;2023-02-19T09:12:30;13.50;58.80
65231;DHT22;51813;40.666;16.602;2023-02-19T09:14:58;13.50;58.80
65231;DHT22;51813;40.666;16.602;2023-02-19T09:17:24;13.60;58.80
65231;DHT22;51813;40.666;16.602;2023-02-19T09:19:49;13.50;58.70
65231;DHT22;51813;40.666;16.602;2023-02-19T09:22:15;13.60;58.80
65231;DHT22;51813;40.666;16.602;2023-02-19T09:24:42;13.60;58.80
65231;DHT22;51813;40.666;16.602;2023-02-19T09:27:08;13.60;58.80
65231;DHT22;51813;40.666;16.602;2023-02-19T09:29:35;13.60;58.80
65231;DHT22;51813;40.666;16.602;2023-02-19T09:32:00;13.60;58.80
65231;DHT22;51813;40.666;16.602;2023-02-19T09:34:27;13.60;58.80
65231;DHT22;51813;40.666;16.602;2023-02-19T09:36:54;13.60;58.90
65231;DHT22;51813;40.666;16.602;2023-02-19T09:39:20;13.60;58.90
65231;DHT22;51813;40.666;16.602;2023-02-19T09:41:57;13.60;58.80
65231;DHT22;51813;40.666;16.602;2023-02-19T09:44:34;13.60;58.80
65231;DHT22;51813;40.666;16.602;2023-02-19T09:47:04;13.60;58.70
65231;DHT22;51813;40.666;16.602;2023-02-19T09:49:33;13.60;58.80
65231;DHT22;51813;40.666;16.602;2023-02-19T09:54:54;13.60;58.80
65231;DHT22;51813;40.666;16.602;2023-02-19T09:57:25;13.60;58.90
65231;DHT22;51813;40.666;16.602;2023-02-19T09:59:55;13.60;58.90
65231;DHT22;51813;40.666;16.602;2023-02-19T10:02:25;13.60;59.00
65231;DHT22;51813;40.666;16.602;2023-02-19T10:04:52;13.60;59.00
65231;DHT22;51813;40.666;16.602;2023-02-19T10:07:36;13.60;58.90
65231;DHT22;51813;40.666;16.602;2023-02-19T10:10:37;13.60;58.90
65231;DHT22;51813;40.666;16.602;2023-02-19T10:13:19;13.60;58.80
65231;DHT22;51813;40.666;16.602;2023-02-19T10:15:54;13.60;58.90
65231;DHT22;51813;40.666;16.602;2023-02-19T10:18:26;13.60;59.00
65231;DHT22;51813;40.666;16.602;2023-02-19T10:20:56;13.60;59.00
65231;DHT22;51813;40.666;16.602;2023-02-19T10:23:22;13.60;59.00
65231;DHT22;51813;40.666;16.602;2023-02-19T10:25:56;13.60;59.00
65231;DHT22;51813;40.666;16.602;2023-02-19T10:28:29;13.60;59.00
65231;DHT22;51813;40.666;16.602;2023-02-19T10:30:57;13.60;59.00
65231;DHT22;51813;40.666;16.602;2023-02-19T10:33:24;13.60;59.00
65231;DHT22;51813;40.666;16.602;2023-02-19T10:36:06;13.60;59.10
65231;DHT22;51813;40.666;16.602;2023-02-19T10:38:45;13.70;59.10
65231;DHT22;51813;40.666;16.602;2023-02-19T10:41:19;13.60;59.10
65231;DHT22;51813;40.666;16.602;2023-02-19T10:44:06;13.60;59.10
65231;DHT22;51813;40.666;16.602;2023-02-19T10:46:42;13.70;59.20
65231;DHT22;51813;40.666;16.602;2023-02-19T10:49:28;13.70;59.20
65231;DHT22;51813;40.666;16.602;2023-02-19T10:52:00;13.70;59.10
65231;DHT22;51813;40.666;16.602;2023-02-19T10:54:36;13.70;59.10
65231;DHT22;51813;40.666;16.602;2023-02-19T11:02:42;13.70;59.30
65231;DHT22;51813;40.666;16.602;2023-02-19T11:07:38;13.70;59.30
65231;DHT22;51813;40.666;16.602;2023-02-19T11:10:28;13.70;59.30
65231;DHT22;51813;40.666;16.602;2023-02-19T11:12:58;13.70;59.30
65231;DHT22;51813;40.666;16.602;2023-02-19T11:15:31;13.70;59.30
65231;DHT22;51813;40.666;16.602;2023-02-19T11:20:28;13.70;59.30
65231;DHT22;51813;40.666;16.602;2023-02-19T11:22:59;13.70;59.40
65231;DHT22;51813;40.666;16.602;2023-02-19T11:25:26;13.70;59.30
65231;DHT22;51813;40.666;16.602;2023-02-19T11:30:44;13.70;59.40
65231;DHT22;51813;40.666;16.602;2023-02-19T11:35:42;13.70;59.40
65231;DHT22;51813;40.666;16.602;2023-02-19T11:38:10;13.70;59.40
65231;DHT22;51813;40.666;16.602;2023-02-19T11:40:40;13.70;59.30
65231;DHT22;51813;40.666;16.602;2023-02-19T11:46:26;13.70;59.40
65231;DHT22;51813;40.666;16.602;2023-02-19T11:51:59;13.80;59.40
65231;DHT22;51813;40.666;16.602;2023-02-19T11:57:21;13.70;59.50
65231;DHT22;51813;40.666;16.602;2023-02-19T12:02:45;13.80;59.60
65231;DHT22;51813;40.666;16.602;2023-02-19T12:11:02;13.80;59.40
65231;DHT22;51813;40.666;16.602;2023-02-19T12:16:33;13.80;59.60
65231;DHT22;51813;40.666;16.602;2023-02-19T12:24:43;13.80;59.50
65231;DHT22;51813;40.666;16.602;2023-02-19T12:32:59;13.80;59.50
65231;DHT22;51813;40.666;16.602;2023-02-19T12:38:29;13.80;59.70
65231;DHT22;51813;40.666;16.602;2023-02-19T12:43:59;13.80;59.70
65231;DHT22;51813;40.666;16.602;2023-02-19T12:46:37;13.80;59.70
65231;DHT22;51813;40.666;16.602;2023-02-19T12:49:14;13.80;59.70
65231;DHT22;51813;40.666;16.602;2023-02-19T12:51:44;13.80;59.70
65231;DHT22;51813;40.666;16.602;2023-02-19T12:54:12;13.80;59.70
65231;DHT22;51813;40.666;16.602;2023-02-19T12:56:59;13.80;59.60
65231;DHT22;51813;40.666;16.602;2023-02-19T13:10:46;13.80;59.70
65231;DHT22;51813;40.666;16.602;2023-02-19T13:13:26;13.80;59.70
65231;DHT22;51813;40.666;16.602;2023-02-19T13:15:56;13.80;59.70
65231;DHT22;51813;40.666;16.602;2023-02-19T13:18:38;13.90;59.70
65231;DHT22;51813;40.666;16.602;2023-02-19T13:21:05;13.90;59.60
65231;DHT22;51813;40.666;16.602;2023-02-19T13:23:33;13.90;59.70
65231;DHT22;51813;40.666;16.602;2023-02-19T13:26:53;13.90;59.70
65231;DHT22;51813;40.666;16.602;2023-02-19T13:37:21;13.90;59.70
65231;DHT22;51813;40.666;16.602;2023-02-19T13:39:53;13.90;59.70
65231;DHT22;51813;40.666;16.602;2023-02-19T13:44:49;13.90;59.80
65231;DHT22;51813;40.666;16.602;2023-02-19T13:47:47;13.90;59.80
65231;DHT22;51813;40.666;16.602;2023-02-19T13:52:58;13.90;59.90
65231;DHT22;51813;40.666;16.602;2023-02-19T13:58:56;13.90;59.80
65231;DHT22;51813;40.666;16.602;2023-02-19T14:04:22;13.90;59.80
65231;DHT22;51813;40.666;16.602;2023-02-19T14:14:47;14.00;59.80
65231;DHT22;51813;40.666;16.602;2023-02-19T14:20:38;13.90;59.90
65231;DHT22;51813;40.666;16.602;2023-02-19T14:23:14;14.00;60.00
65231;DHT22;51813;40.666;16.602;2023-02-19T14:25:47;13.90;60.00
65231;DHT22;51813;40.666;16.602;2023-02-19T14:28:18;13.90;60.10
65231;DHT22;51813;40.666;16.602;2023-02-19T14:31:14;13.90;60.10
65231;DHT22;51813;40.666;16.602;2023-02-19T14:33:49;13.90;60.10
65231;DHT22;51813;40.666;16.602;2023-02-19T14:41:37;13.90;60.10
65231;DHT22;51813;40.666;16.602;2023-02-19T14:44:06;13.90;60.10
65231;DHT22;51813;40.666;16.602;2023-02-19T14:46:47;13.90;60.10
65231;DHT22;51813;40.666;16.602;2023-02-19T14:49:33;13.90;60.20
65231;DHT22;51813;40.666;16.602;2023-02-19T14:52:06;13.90;60.20
65231;DHT22;51813;40.666;16.602;2023-02-19T14:54:42;14.00;60.30
65231;DHT22;51813;40.666;16.602;2023-02-19T14:57:22;13.90;60.20
65231;DHT22;51813;40.666;16.602;2023-02-19T15:00:03;13.90;60.30
65231;DHT22;51813;40.666;16.602;2023-02-19T15:02:31;13.90;60.30
65231;DHT22;51813;40.666;16.602;2023-02-19T15:04:56;13.90;60.30
65231;DHT22;51813;40.666;16.602;2023-02-19T15:07:31;13.90;60.20
65231;DHT22;51813;40.666;16.602;2023-02-19T15:10:00;13.90;60.20
65231;DHT22;51813;40.666;16.602;2023-02-19T15:12:31;13.90;60.30
65231;DHT22;51813;40.666;16.602;2023-02-19T15:15:00;13.90;60.30
65231;DHT22;51813;40.666;16.602;2023-02-19T15:17:31;13.90;60.30
65231;DHT22;51813;40.666;16.602;2023-02-19T15:20:01;13.90;60.30
65231;DHT22;51813;40.666;16.602;2023-02-19T15:22:28;13.90;60.30
65231;DHT22;51813;40.666;16.602;2023-02-19T15:25:02;14.00;60.40
65231;DHT22;51813;40.666;16.602;2023-02-19T15:27:29;13.90;60.30
65231;DHT22;51813;40.666;16.602;2023-02-19T15:29:55;13.90;60.40
65231;DHT22;51813;40.666;16.602;2023-02-19T15:32:25;13.90;60.50
65231;DHT22;51813;40.666;16.602;2023-02-19T15:34:59;13.90;60.50
65231;DHT22;51813;40.666;16.602;2023-02-19T15:37:31;13.90;60.50
65231;DHT22;51813;40.666;16.602;2023-02-19T15:39:59;13.90;61.10
65231;DHT22;51813;40.666;16.602;2023-02-19T15:42:31;13.90;60.50
65231;DHT22;51813;40.666;16.602;2023-02-19T15:45:19;14.00;60.50
65231;DHT22;51813;40.666;16.602;2023-02-19T15:50:31;13.90;60.50
65231;DHT22;51813;40.666;16.602;2023-02-19T15:53:13;13.90;60.50
65231;DHT22;51813;40.666;16.602;2023-02-19T15:58:31;13.90;60.50
65231;DHT22;51813;40.666;16.602;2023-02-19T16:03:36;13.90;60.50
65231;DHT22;51813;40.666;16.602;2023-02-19T16:06:10;14.00;60.60
65231;DHT22;51813;40.666;16.602;2023-02-19T16:08:40;13.90;60.60
65231;DHT22;51813;40.666;16.602;2023-02-19T16:11:28;13.90;60.60
65231;DHT22;51813;40.666;16.602;2023-02-19T16:14:17;14.00;60.60
65231;DHT22;51813;40.666;16.602;2023-02-19T16:16:45;13.90;60.60
65231;DHT22;51813;40.666;16.602;2023-02-19T16:19:11;14.00;60.70
65231;DHT22;51813;40.666;16.602;2023-02-19T16:21:37;14.00;60.70
65231;DHT22;51813;40.666;16.602;2023-02-19T16:24:15;13.90;60.60
65231;DHT22;51813;40.666;16.602;2023-02-19T16:26:44;14.00;60.70
65231;DHT22;51813;40.666;16.602;2023-02-19T16:29:20;13.90;60.70
65231;DHT22;51813;40.666;16.602;2023-02-19T16:31:52;13.90;60.90
65231;DHT22;51813;40.666;16.602;2023-02-19T16:36:54;13.80;61.20
65231;DHT22;51813;40.666;16.602;2023-02-19T16:39:21;13.70;61.50
65231;DHT22;51813;40.666;16.602;2023-02-19T16:46:54;13.70;61.50
65231;DHT22;51813;40.666;16.602;2023-02-19T16:49:22;13.70;61.50
65231;DHT22;51813;40.666;16.602;2023-02-19T16:51:48;13.70;61.50
65231;DHT22;51813;40.666;16.602;2023-02-19T16:54:14;13.70;61.50
65231;DHT22;51813;40.666;16.602;2023-02-19T16:56:40;13.70;61.60
65231;DHT22;51813;40.666;16.602;2023-02-19T16:59:05;13.70;61.50
65231;DHT22;51813;40.666;16.602;2023-02-19T17:01:33;13.70;61.70
65231;DHT22;51813;40.666;16.602;2023-02-19T17:04:03;13.60;61.50
65231;DHT22;51813;40.666;16.602;2023-02-19T17:06:30;13.60;61.50
65231;DHT22;51813;40.666;16.602;2023-02-19T17:08:57;13.60;61.60
65231;DHT22;51813;40.666;16.602;2023-02-19T17:11:23;13.60;61.70
65231;DHT22;51813;40.666;16.602;2023-02-19T17:13:49;13.60;61.70
65231;DHT22;51813;40.666;16.602;2023-02-19T17:16:24;13.60;62.30
65231;DHT22;51813;40.666;16.602;2023-02-19T17:18:52;13.60;61.60
65231;DHT22;51813;40.666;16.602;2023-02-19T17:23:48;13.60;61.70
65231;DHT22;51813;40.666;16.602;2023-02-19T17:26:19;13.60;61.70
65231;DHT22;51813;40.666;16.602;2023-02-19T17:28:45;13.60;61.70
65231;DHT22;51813;40.666;16.602;2023-02-19T17:31:11;13.60;61.80
65231;DHT22;51813;40.666;16.602;2023-02-19T17:33:37;13.60;61.90
65231;DHT22;51813;40.666;16.602;2023-02-19T17:36:03;13.60;61.80
65231;DHT22;51813;40.666;16.602;2023-02-19T17:38:29;13.60;61.80
65231;DHT22;51813;40.666;16.602;2023-02-19T17:40:55;13.50;61.90
65231;DHT22;51813;40.666;16.602;2023-02-19T17:43:20;13.60;62.00
65231;DHT22;51813;40.666;16.602;2023-02-19T17:45:46;13.50;61.90
65231;DHT22;51813;40.666;16.602;2023-02-19T17:48:12;13.50;62.00
65231;DHT22;51813;40.666;16.602;2023-02-19T17:50:39;13.50;61.90
65231;DHT22;51813;40.666;16.602;2023-02-19T17:53:04;13.50;62.00
65231;DHT22;51813;40.666;16.602;2023-02-19T17:55:30;13.50;62.00
65231;DHT22;51813;40.666;16.602;2023-02-19T17:57:56;13.50;62.00
65231;DHT22;51813;40.666;16.602;2023-02-19T18:00:25;13.50;62.00